createdAt,value
2022-08-09T00:00:28.631Z,74.96
2022-08-09T00:02:58.308Z,75.71
2022-08-09T00:06:17.602Z,76.04
2022-08-09T00:08:32.892Z,76.32
2022-08-09T00:11:00.768Z,76.43
2022-08-09T00:13:32.741Z,76.76
2022-08-09T00:16:02.678Z,76.87
2022-08-09T00:18:34.819Z,77.69
2022-08-09T00:21:04.725Z,77.59
2022-08-09T00:23:54.644Z,77.82
2022-08-09T00:26:32.520Z,77.93
2022-08-09T00:29:01.542Z,77.97
2022-08-09T00:31:58.507Z,77.73
2022-08-09T00:34:15.166Z,77.46
2022-08-09T00:36:49.201Z,77.35
2022-08-09T00:40:13.494Z,77.81
2022-08-09T00:44:11.191Z,78.14
2022-08-09T00:44:58.268Z,79.14
2022-08-09T00:47:25.309Z,78.96
2022-08-09T00:49:54.818Z,79.21
2022-08-09T00:52:28.303Z,78.62
2022-08-09T00:55:06.068Z,78.31
2022-08-09T00:57:41.532Z,78.48
2022-08-09T01:00:21.219Z,78.74
2022-08-09T01:02:57.441Z,79.53
2022-08-09T01:05:51.604Z,79.80
2022-08-09T01:08:51.590Z,79.66
2022-08-09T01:11:28.869Z,79.52
2022-08-09T01:14:07.621Z,79.81
2022-08-09T01:16:47.494Z,78.90
2022-08-09T01:19:43.075Z,79.42
2022-08-09T01:22:48.265Z,80.69
2022-08-09T01:25:52.828Z,80.38
2022-08-09T01:28:22.737Z,80.36
2022-08-09T01:30:55.815Z,80.25
2022-08-09T01:33:32.991Z,79.78
2022-08-09T01:36:13.507Z,81.45
2022-08-09T01:38:48.117Z,81.32
2022-08-09T01:41:27.221Z,81.87
2022-08-09T01:44:01.017Z,82.24
2022-08-09T01:46:40.936Z,82.61
2022-08-09T01:49:18.460Z,82.40
2022-08-09T01:51:53.163Z,82.85
2022-08-09T01:54:32.853Z,83.07
2022-08-09T01:57:08.217Z,83.35
2022-08-09T01:59:40.917Z,83.41
2022-08-09T02:02:30.954Z,83.59
2022-08-09T02:05:05.469Z,83.85
2022-08-09T02:08:38.673Z,83.52
2022-08-09T02:10:34.594Z,83.79
2022-08-09T02:13:05.377Z,84.55
2022-08-09T02:15:48.857Z,85.63
2022-08-09T02:18:23.687Z,85.82
2022-08-09T02:20:57.207Z,85.52
2022-08-09T02:23:48.638Z,86.11
2022-08-09T02:26:27.176Z,85.60
2022-08-09T02:29:00.785Z,85.83
2022-08-09T02:31:36.192Z,87.00
2022-08-09T02:34:13.714Z,87.53
2022-08-09T02:36:56.551Z,88.74
2022-08-09T02:39:39.904Z,88.38
2022-08-09T02:42:19.782Z,89.30
2022-08-09T02:44:57.061Z,89.13
2022-08-09T02:47:24.824Z,89.72
2022-08-09T02:50:01.445Z,90.69
2022-08-09T02:52:55.387Z,92.12
2022-08-09T02:55:24.374Z,91.51
2022-08-09T02:58:36.848Z,93.27
2022-08-09T03:01:04.485Z,93.87
2022-08-09T03:03:59.614Z,94.49
2022-08-09T03:06:25.093Z,94.77
2022-08-09T03:08:55.449Z,94.06
2022-08-09T03:12:06.555Z,94.82
2022-08-09T03:14:18.894Z,94.80
2022-08-09T03:16:48.833Z,95.81
2022-08-09T03:19:52.878Z,96.14
2022-08-09T03:22:12.514Z,96.03
2022-08-09T03:25:06.694Z,96.12
2022-08-09T03:27:46.345Z,95.83
2022-08-09T03:30:29.917Z,96.81
2022-08-09T03:33:13.074Z,96.73
2022-08-09T03:36:12.523Z,96.87
2022-08-09T03:38:35.636Z,96.91
2022-08-09T03:41:04.108Z,97.30
2022-08-09T03:43:31.585Z,97.81
2022-08-09T03:46:04.117Z,97.16
2022-08-09T03:48:52.757Z,96.79
2022-08-09T03:51:43.736Z,97.67
2022-08-09T03:54:10.737Z,97.70
2022-08-09T03:56:41.696Z,97.93
2022-08-09T03:59:13.624Z,98.54
2022-08-09T04:01:44.692Z,97.90
2022-08-09T04:04:22.072Z,98.52
2022-08-09T04:06:51.343Z,99.68
2022-08-09T04:09:47.636Z,100.00
2022-08-09T04:12:40.746Z,100.00
2022-08-09T04:15:29.491Z,100.00
2022-08-09T04:18:01.596Z,100.00
2022-08-09T04:20:28.202Z,100.00
2022-08-09T04:22:55.619Z,100.00
2022-08-09T04:25:22.548Z,100.00
2022-08-09T04:27:51.994Z,100.00
2022-08-09T04:30:23.363Z,98.17
2022-08-09T04:32:50.629Z,96.76
2022-08-09T04:35:17.883Z,94.38
2022-08-09T04:37:50.937Z,92.82
2022-08-09T04:40:36.174Z,89.21
2022-08-09T04:43:03.954Z,87.21
2022-08-09T04:45:36.073Z,83.88
2022-08-09T04:48:23.638Z,83.26
2022-08-09T04:50:50.479Z,82.10
2022-08-09T04:53:20.112Z,83.10
2022-08-09T04:55:57.721Z,82.87
2022-08-09T04:58:25.624Z,81.60
2022-08-09T05:00:52.243Z,80.53
2022-08-09T05:03:40.820Z,78.81
2022-08-09T05:06:11.889Z,76.83
2022-08-09T05:08:48.709Z,73.84
2022-08-09T05:11:15.870Z,72.68
2022-08-09T05:13:47.146Z,72.31
2022-08-09T05:16:19.166Z,70.49
2022-08-09T05:18:59.287Z,70.09
2022-08-09T05:21:30.072Z,69.24
2022-08-09T05:24:04.050Z,68.30
2022-08-09T05:26:36.970Z,66.70
2022-08-09T05:29:17.480Z,65.58
2022-08-09T05:31:46.571Z,64.05
2022-08-09T05:34:16.903Z,63.41
2022-08-09T05:36:44.122Z,64.84
2022-08-09T05:39:29.621Z,66.74
2022-08-09T05:42:04.429Z,64.91
2022-08-09T05:44:32.876Z,66.01
2022-08-09T05:47:01.100Z,63.69
2022-08-09T05:50:24.511Z,63.20
2022-08-09T05:52:30.631Z,65.69
2022-08-09T05:54:57.110Z,64.97
2022-08-09T05:57:55.671Z,65.77
2022-08-09T06:00:18.481Z,64.85
2022-08-09T06:02:46.496Z,67.06
2022-08-09T06:05:13.471Z,65.44
2022-08-09T06:07:42.932Z,65.98
2022-08-09T06:10:15.969Z,66.24
2022-08-09T06:12:44.703Z,65.79
2022-08-09T06:15:17.202Z,67.99
2022-08-09T06:17:43.654Z,69.16
2022-08-09T06:20:13.235Z,70.72
2022-08-09T06:22:46.101Z,70.50
2022-08-09T06:25:16.204Z,70.06
2022-08-09T06:27:51.463Z,70.90
2022-08-09T06:30:18.733Z,70.03
2022-08-09T06:32:53.342Z,68.47
2022-08-09T06:35:56.021Z,68.71
2022-08-09T06:38:16.573Z,68.41
2022-08-09T06:40:43.764Z,69.54
2022-08-09T06:43:15.196Z,68.52
2022-08-09T06:46:06.339Z,68.71
2022-08-09T06:48:31.309Z,68.61
2022-08-09T06:50:59.587Z,66.45
2022-08-09T06:53:26.496Z,65.84
2022-08-09T06:55:53.281Z,65.78
2022-08-09T06:58:40.936Z,63.79
2022-08-09T07:01:11.381Z,64.90
2022-08-09T07:03:39.689Z,64.78
2022-08-09T07:06:21.021Z,64.01
2022-08-09T07:08:49.717Z,65.06
2022-08-09T07:11:23.612Z,64.51
2022-08-09T07:14:04.533Z,63.98
2022-08-09T07:16:42.347Z,63.03
2022-08-09T07:19:23.183Z,61.66
2022-08-09T07:21:57.913Z,60.63
2022-08-09T07:24:32.155Z,60.12
2022-08-09T07:27:11.172Z,60.31
2022-08-09T07:29:57.050Z,60.41
2022-08-09T07:32:23.898Z,60.68
2022-08-09T07:35:00.900Z,59.79
2022-08-09T07:37:29.325Z,59.12
2022-08-09T07:39:55.966Z,59.04
2022-08-09T07:42:26.087Z,57.67
2022-08-09T07:45:01.821Z,57.34
2022-08-09T07:47:49.427Z,58.43
2022-08-09T07:50:21.079Z,58.66
2022-08-09T07:53:04.822Z,58.01
2022-08-09T07:56:02.798Z,55.76
2022-08-09T07:58:18.782Z,56.11
2022-08-09T08:00:56.063Z,56.08
2022-08-09T08:03:33.027Z,56.00
2022-08-09T08:06:00.714Z,55.62
2022-08-09T08:09:01.540Z,55.09
2022-08-09T08:12:08.768Z,53.81
2022-08-09T08:14:00.483Z,52.48
2022-08-09T08:16:29.713Z,53.53
2022-08-09T08:18:59.446Z,52.28
2022-08-09T08:21:30.261Z,50.88
2022-08-09T08:23:56.674Z,51.39
2022-08-09T08:26:41.739Z,51.86
2022-08-09T08:29:09.797Z,51.95
2022-08-09T08:32:03.005Z,51.36
2022-08-09T08:34:25.409Z,50.49
2022-08-09T08:36:52.167Z,50.64
2022-08-09T08:39:18.642Z,51.29
2022-08-09T08:41:51.641Z,51.63
2022-08-09T08:44:23.128Z,50.46
2022-08-09T08:46:59.525Z,50.25
2022-08-09T08:49:47.305Z,50.68
2022-08-09T08:52:58.473Z,49.35
2022-08-09T08:55:07.207Z,48.69
2022-08-09T08:57:35.082Z,48.68
2022-08-09T09:00:02.407Z,48.44
2022-08-09T09:02:35.207Z,46.55
2022-08-09T09:05:03.038Z,46.84
2022-08-09T09:07:42.643Z,47.05
2022-08-09T09:10:10.115Z,47.43
2022-08-09T09:12:37.180Z,46.92
2022-08-09T09:15:06.575Z,47.82
2022-08-09T09:17:48.469Z,47.78
2022-08-09T09:20:20.672Z,47.76
2022-08-09T09:22:56.900Z,46.72
2022-08-09T09:26:03.682Z,47.24
2022-08-09T09:28:21.389Z,47.00
2022-08-09T09:31:17.681Z,46.13
2022-08-09T09:34:14.666Z,45.70
2022-08-09T09:36:51.180Z,44.86
2022-08-09T09:39:23.252Z,46.65
2022-08-09T09:41:50.961Z,45.76
2022-08-09T09:44:35.169Z,45.38
2022-08-09T09:47:09.275Z,45.12
2022-08-09T09:50:06.967Z,43.96
2022-08-09T09:52:37.438Z,43.53
2022-08-09T09:55:24.221Z,43.87
2022-08-09T09:58:12.577Z,43.98
2022-08-09T10:00:54.736Z,43.74
2022-08-09T10:03:43.865Z,43.72
2022-08-09T10:06:12.791Z,44.12
2022-08-09T10:08:54.735Z,43.46
2022-08-09T10:11:59.979Z,43.15
2022-08-09T10:14:27.483Z,43.96
2022-08-09T10:17:38.873Z,43.77
2022-08-09T10:19:57.395Z,41.62
2022-08-09T10:22:33.069Z,42.09
2022-08-09T10:25:06.990Z,43.32
2022-08-09T10:27:56.041Z,41.94
2022-08-09T10:33:29.785Z,42.19
2022-08-09T10:36:04.947Z,42.37
2022-08-09T10:38:55.062Z,42.19
2022-08-09T10:41:20.440Z,42.10
2022-08-09T10:43:59.186Z,42.14
2022-08-09T10:46:54.988Z,41.39
2022-08-09T10:49:49.852Z,41.32
2022-08-09T10:53:00.155Z,42.31
2022-08-09T10:55:55.252Z,41.37
2022-08-09T10:58:37.977Z,41.59
2022-08-09T11:03:11.282Z,40.83
2022-08-09T11:04:20.080Z,40.23
2022-08-09T11:07:00.756Z,40.69
2022-08-09T11:09:48.176Z,40.28
2022-08-09T11:12:20.335Z,39.98
2022-08-09T11:14:55.796Z,40.33
2022-08-09T11:17:27.281Z,38.57
2022-08-09T11:20:20.415Z,38.86
2022-08-09T11:22:56.902Z,39.99
2022-08-09T11:25:36.282Z,39.45
2022-08-09T11:28:34.011Z,39.16
2022-08-09T11:31:03.786Z,39.44
2022-08-09T11:33:45.502Z,39.48
2022-08-09T11:36:35.255Z,40.08
2022-08-09T11:39:04.644Z,40.33
2022-08-09T11:41:38.224Z,39.14
2022-08-09T11:44:07.408Z,39.48
2022-08-09T11:46:57.214Z,39.39
2022-08-09T11:50:56.869Z,39.11
2022-08-09T11:53:21.019Z,38.21
2022-08-09T11:55:53.968Z,38.12
2022-08-09T11:58:33.597Z,37.99
2022-08-09T12:01:37.328Z,37.51
2022-08-09T12:04:00.934Z,38.51
2022-08-09T12:06:32.363Z,38.09
2022-08-09T12:09:01.310Z,38.25
2022-08-09T12:11:28.564Z,37.43
2022-08-09T12:14:08.320Z,37.27
2022-08-09T12:16:43.435Z,36.76
2022-08-09T12:19:13.090Z,37.41
2022-08-09T12:21:50.592Z,36.56
2022-08-09T12:24:24.932Z,37.10
2022-08-09T12:29:10.052Z,35.91
2022-08-09T12:29:58.665Z,36.61
2022-08-09T12:32:31.529Z,35.93
2022-08-09T12:35:04.797Z,34.52
2022-08-09T12:37:50.196Z,35.68
2022-08-09T12:40:21.096Z,37.21
2022-08-09T12:42:50.427Z,36.16
2022-08-09T12:45:35.044Z,37.20
2022-08-09T12:48:20.227Z,36.65
2022-08-09T12:51:04.086Z,36.60
2022-08-09T12:53:44.821Z,35.40
2022-08-09T12:56:43.160Z,34.77
2022-08-09T12:59:16.713Z,35.06
2022-08-09T13:01:49.908Z,33.96
2022-08-09T13:04:21.724Z,35.22
2022-08-09T13:07:16.556Z,35.20
2022-08-09T13:09:55.740Z,34.32
2022-08-09T13:12:27.928Z,34.28
2022-08-09T13:15:07.183Z,34.04
2022-08-09T13:18:03.341Z,34.06
2022-08-09T13:22:34.425Z,34.40
2022-08-09T13:24:16.028Z,35.02
2022-08-09T13:26:36.834Z,34.68
2022-08-09T13:29:15.663Z,34.91
2022-08-09T13:32:19.476Z,34.78
2022-08-09T13:34:52.949Z,34.55
2022-08-09T13:37:51.061Z,34.64
2022-08-09T13:41:56.536Z,34.12
2022-08-09T13:42:57.174Z,32.69
2022-08-09T13:45:32.179Z,32.57
2022-08-09T13:48:10.645Z,32.83
2022-08-09T13:50:40.221Z,32.96
2022-08-09T13:53:07.949Z,34.16
2022-08-09T13:55:36.986Z,33.15
2022-08-09T13:58:04.995Z,34.35
2022-08-09T14:00:37.956Z,32.88
2022-08-09T14:03:58.076Z,33.92
2022-08-09T14:06:02.752Z,33.77
2022-08-09T14:08:30.737Z,34.11
2022-08-09T14:11:01.219Z,33.50
2022-08-09T14:14:24.720Z,32.90
2022-08-09T14:16:18.854Z,33.57
2022-08-09T14:18:50.187Z,34.12
2022-08-09T14:21:22.938Z,33.61
2022-08-09T14:23:55.086Z,33.92
2022-08-09T14:26:32.028Z,34.32
2022-08-09T14:29:07.756Z,33.98
2022-08-09T14:31:53.359Z,33.86
2022-08-09T14:34:30.930Z,34.47
2022-08-09T14:36:59.719Z,34.26
2022-08-09T14:39:47.254Z,33.87
2022-08-09T14:42:31.698Z,33.77
2022-08-09T14:46:40.044Z,33.15
2022-08-09T14:48:00.346Z,33.67
2022-08-09T14:50:34.423Z,33.46
2022-08-09T14:53:06.374Z,34.20
2022-08-09T14:55:42.063Z,33.61
2022-08-09T14:58:09.347Z,33.51
2022-08-09T15:00:36.707Z,33.98
2022-08-09T15:03:08.011Z,34.23
2022-08-09T15:05:37.678Z,34.21
2022-08-09T15:08:10.305Z,34.10
2022-08-09T15:10:43.522Z,33.93
2022-08-09T15:13:27.857Z,33.84
2022-08-09T15:16:14.279Z,34.25
2022-08-09T15:18:40.743Z,33.67
2022-08-09T15:21:55.327Z,34.17
2022-08-09T15:24:00.954Z,34.33
2022-08-09T15:26:32.660Z,33.70
2022-08-09T15:29:04.125Z,34.31
2022-08-09T15:31:41.327Z,33.76
2022-08-09T15:34:31.826Z,33.71
2022-08-09T15:36:56.578Z,33.81
2022-08-09T15:39:24.944Z,33.60
2022-08-09T15:42:01.345Z,34.19
2022-08-09T15:44:28.014Z,34.91
2022-08-09T15:47:05.955Z,34.64
2022-08-09T15:49:54.739Z,34.24
2022-08-09T15:52:30.387Z,34.41
2022-08-09T15:54:56.973Z,33.97
2022-08-09T15:57:35.030Z,34.81
2022-08-09T16:00:24.194Z,34.65
2022-08-09T16:02:54.623Z,34.74
2022-08-09T16:05:23.700Z,35.21
2022-08-09T16:07:50.473Z,34.94
2022-08-09T16:10:56.157Z,35.18
2022-08-09T16:13:03.809Z,35.06
2022-08-09T16:16:04.698Z,34.48
2022-08-09T16:18:17.021Z,35.44
2022-08-09T16:20:46.635Z,35.54
2022-08-09T16:23:13.647Z,35.40
2022-08-09T16:25:41.757Z,34.98
2022-08-09T16:28:16.157Z,35.66
2022-08-09T16:30:44.755Z,34.93
2022-08-09T16:33:23.135Z,35.29
2022-08-09T16:35:57.077Z,34.73
2022-08-09T16:38:26.483Z,35.60
2022-08-09T16:40:53.307Z,35.76
2022-08-09T16:43:21.010Z,36.09
2022-08-09T16:45:48.067Z,35.86
2022-08-09T16:48:39.387Z,35.74
2022-08-09T16:51:08.500Z,35.86
2022-08-09T16:54:02.456Z,36.41
2022-08-09T16:56:27.037Z,36.64
2022-08-09T16:58:57.798Z,36.60
2022-08-09T17:01:24.853Z,36.62
2022-08-09T17:03:51.822Z,36.70
2022-08-09T17:06:32.088Z,36.53
2022-08-09T17:09:17.688Z,36.97
2022-08-09T17:11:51.435Z,36.57
2022-08-09T17:14:27.264Z,37.15
2022-08-09T17:17:00.136Z,37.37
2022-08-09T17:19:47.606Z,37.83
2022-08-09T17:22:24.788Z,37.08
2022-08-09T17:25:03.813Z,37.20
2022-08-09T17:27:32.956Z,37.24
2022-08-09T17:29:59.378Z,36.99
2022-08-09T17:32:35.236Z,37.47
2022-08-09T17:35:11.932Z,37.17
2022-08-09T17:38:14.486Z,37.50
2022-08-09T17:40:33.251Z,37.66
2022-08-09T17:43:10.866Z,37.39
2022-08-09T17:46:05.772Z,37.83
2022-08-09T17:48:40.725Z,37.76
2022-08-09T17:51:19.857Z,38.37
2022-08-09T17:53:53.552Z,38.38
2022-08-09T17:56:27.556Z,38.31
2022-08-09T17:59:00.559Z,38.87
2022-08-09T18:01:58.056Z,39.16
2022-08-09T18:04:17.751Z,39.19
2022-08-09T18:06:54.332Z,39.09
2022-08-09T18:09:22.728Z,39.65
2022-08-09T18:12:14.864Z,39.71
2022-08-09T18:14:49.460Z,40.65
2022-08-09T18:17:27.132Z,40.64
2022-08-09T18:21:00.343Z,40.34
2022-08-09T18:22:53.874Z,39.96
2022-08-09T18:25:20.949Z,40.46
2022-08-09T18:28:21.660Z,40.85
2022-08-09T18:30:54.244Z,41.17
2022-08-09T18:33:23.006Z,41.85
2022-08-09T18:35:59.441Z,42.22
2022-08-09T18:38:29.382Z,41.46
2022-08-09T18:40:58.266Z,41.88
2022-08-09T18:43:24.718Z,41.49
2022-08-09T18:46:46.470Z,41.41
2022-08-09T18:48:37.581Z,41.83
2022-08-09T18:51:06.892Z,42.13
2022-08-09T18:53:59.858Z,42.09
2022-08-09T18:56:27.101Z,42.46
2022-08-09T18:58:55.542Z,42.47
2022-08-09T19:01:22.718Z,42.89
2022-08-09T19:04:00.914Z,43.91
2022-08-09T19:06:32.912Z,43.30
2022-08-09T19:09:02.615Z,43.46
2022-08-09T19:11:37.871Z,43.46
2022-08-09T19:14:06.490Z,43.70
2022-08-09T19:16:36.055Z,44.27
2022-08-09T19:19:25.062Z,44.87
2022-08-09T19:22:06.244Z,44.28
2022-08-09T19:25:11.875Z,44.78
2022-08-09T19:27:28.537Z,45.70
2022-08-09T19:30:22.621Z,46.00
2022-08-09T19:32:44.517Z,46.30
2022-08-09T19:35:11.047Z,46.56
2022-08-09T19:37:56.025Z,46.15
2022-08-09T19:40:24.286Z,46.46
2022-08-09T19:43:01.911Z,47.13
2022-08-09T19:45:40.326Z,46.13
2022-08-09T19:48:09.554Z,46.70
2022-08-09T19:50:50.985Z,46.91
2022-08-09T19:53:18.282Z,47.23
2022-08-09T19:56:02.043Z,47.20
2022-08-09T19:58:32.370Z,47.13
2022-08-09T20:00:59.049Z,47.28
2022-08-09T20:04:11.169Z,47.72
2022-08-09T20:06:24.067Z,47.59
2022-08-09T20:08:57.639Z,47.25
2022-08-09T20:11:27.113Z,47.72
2022-08-09T20:14:00.646Z,47.43
2022-08-09T20:16:39.319Z,48.00
2022-08-09T20:19:48.386Z,48.42
2022-08-09T20:22:00.597Z,48.81
2022-08-09T20:24:29.446Z,48.38
2022-08-09T20:27:00.953Z,49.12
2022-08-09T20:29:32.492Z,48.95
2022-08-09T20:32:28.988Z,49.45
2022-08-09T20:34:50.727Z,49.56
2022-08-09T20:37:21.466Z,49.88
2022-08-09T20:40:14.974Z,50.16
2022-08-09T20:42:38.245Z,49.62
2022-08-09T20:45:56.449Z,50.23
2022-08-09T20:47:52.438Z,50.72
2022-08-09T20:50:47.209Z,50.36
2022-08-09T20:53:34.984Z,49.58
2022-08-09T20:56:02.089Z,49.92
2022-08-09T20:58:32.894Z,50.76
2022-08-09T21:01:32.554Z,50.18
2022-08-09T21:05:49.486Z,50.70
2022-08-09T21:06:41.507Z,50.82
2022-08-09T21:09:11.762Z,51.06
2022-08-09T21:14:40.567Z,51.29
2022-08-09T21:18:22.559Z,51.08
2022-08-09T21:20:22.691Z,51.97
2022-08-09T21:22:57.042Z,52.11
2022-08-09T21:25:59.929Z,52.80
2022-08-09T21:28:39.845Z,52.99
2022-08-09T21:31:49.155Z,53.26
2022-08-09T21:34:29.279Z,53.70
2022-08-09T21:37:03.082Z,53.60
2022-08-09T21:39:42.405Z,54.16
2022-08-09T21:42:16.043Z,54.47
2022-08-09T21:44:56.062Z,54.74
2022-08-09T21:47:27.992Z,54.96
2022-08-09T21:49:57.411Z,55.49
2022-08-09T21:52:38.561Z,55.67
2022-08-09T21:55:08.604Z,56.02
2022-08-09T21:57:58.732Z,56.34
2022-08-09T22:00:43.591Z,56.39
2022-08-09T22:03:36.666Z,56.44
2022-08-09T22:06:18.599Z,56.43
2022-08-09T22:08:49.469Z,56.89
2022-08-09T22:12:05.316Z,56.87
2022-08-09T22:14:06.672Z,56.52
2022-08-09T22:16:44.482Z,56.86
2022-08-09T22:19:53.381Z,57.36
2022-08-09T22:22:39.503Z,57.72
2022-08-09T22:26:05.421Z,57.71
2022-08-09T22:28:09.768Z,57.49
2022-08-09T22:30:48.728Z,57.82
2022-08-09T22:33:19.879Z,57.92
2022-08-09T22:36:01.220Z,57.54
2022-08-09T22:38:39.608Z,57.92
2022-08-09T22:41:18.161Z,57.25
2022-08-09T22:44:02.363Z,58.31
2022-08-09T22:48:10.863Z,58.54
2022-08-09T22:49:18.218Z,58.62
2022-08-09T22:51:49.395Z,58.46
2022-08-09T22:54:21.364Z,58.85
2022-08-09T22:56:50.801Z,58.80
2022-08-09T22:59:56.835Z,58.81
2022-08-09T23:02:09.125Z,58.98
2022-08-09T23:04:42.303Z,58.66
2022-08-09T23:08:22.460Z,59.00
2022-08-09T23:10:13.799Z,59.29
2022-08-09T23:12:40.995Z,59.35
2022-08-09T23:15:08.451Z,59.09
2022-08-09T23:17:37.622Z,59.33
2022-08-09T23:20:07.132Z,59.22
2022-08-09T23:22:36.954Z,59.39
2022-08-09T23:25:08.598Z,59.46
2022-08-09T23:28:14.142Z,59.56
2022-08-09T23:30:24.919Z,59.36
2022-08-09T23:32:51.931Z,59.90
2022-08-09T23:36:06.175Z,60.09
2022-08-09T23:38:24.269Z,60.53
2022-08-09T23:43:55.298Z,60.33
2022-08-09T23:46:26.497Z,60.33
2022-08-09T23:49:25.202Z,60.54
2022-08-09T23:52:07.097Z,60.57
2022-08-09T23:54:55.209Z,60.89
2022-08-09T23:57:24.019Z,61.34
